sensor_id;sensor_type;location;lat;lon;timestamp;pressure;altitude;pressure_sealevel;temperature;humidity
45621;BME280;31345;51.522;10.702;2022-07-04T00:01:18;99254.78;;;16.65;91.80
45621;BME280;31345;51.522;10.702;2022-07-04T00:03:45;99257.47;;;16.24;94.96
45621;BME280;31345;51.522;10.702;2022-07-04T00:06:16;99250.19;;;16.16;96.66
45621;BME280;31345;51.522;10.702;2022-07-04T00:08:44;99244.50;;;15.80;98.40
45621;BME280;31345;51.522;10.702;2022-07-04T00:11:14;99252.25;;;16.03;99.46
45621;BME280;31345;51.522;10.702;2022-07-04T00:13:41;99253.41;;;16.71;92.12
45621;BME280;31345;51.522;10.702;2022-07-04T00:16:13;99260.19;;;16.64;92.46
45621;BME280;31345;51.522;10.702;2022-07-04T00:18:41;99267.97;;;16.14;95.42
45621;BME280;31345;51.522;10.702;2022-07-04T00:21:09;99262.47;;;15.96;96.79
45621;BME280;31345;51.522;10.702;2022-07-04T00:23:36;99265.56;;;16.01;96.27
45621;BME280;31345;51.522;10.702;2022-07-04T00:26:04;99279.91;;;16.59;92.87
45621;BME280;31345;51.522;10.702;2022-07-04T00:28:32;99278.91;;;16.41;94.20
45621;BME280;31345;51.522;10.702;2022-07-04T00:31:00;99274.16;;;16.03;95.42
45621;BME280;31345;51.522;10.702;2022-07-04T00:33:29;99276.84;;;15.82;98.43
45621;BME280;31345;51.522;10.702;2022-07-04T00:35:57;99279.09;;;15.65;100.00
45621;BME280;31345;51.522;10.702;2022-07-04T00:38:24;99287.78;;;15.56;100.00
45621;BME280;31345;51.522;10.702;2022-07-04T00:40:52;99290.56;;;16.07;97.53
45621;BME280;31345;51.522;10.702;2022-07-04T00:43:21;99287.28;;;15.93;98.66
45621;BME280;31345;51.522;10.702;2022-07-04T00:45:50;99285.03;;;16.10;96.19
45621;BME280;31345;51.522;10.702;2022-07-04T00:48:18;99282.50;;;15.77;99.71
45621;BME280;31345;51.522;10.702;2022-07-04T00:50:48;99275.72;;;16.06;96.81
45621;BME280;31345;51.522;10.702;2022-07-04T00:53:17;99269.75;;;16.45;93.87
45621;BME280;31345;51.522;10.702;2022-07-04T00:55:46;99280.16;;;15.84;96.19
45621;BME280;31345;51.522;10.702;2022-07-04T00:58:19;99286.50;;;16.03;96.47
45621;BME280;31345;51.522;10.702;2022-07-04T01:00:51;99281.44;;;15.90;97.87
45621;BME280;31345;51.522;10.702;2022-07-04T01:03:21;99289.53;;;15.98;98.61
45621;BME280;31345;51.522;10.702;2022-07-04T01:05:53;99280.41;;;16.02;97.56
45621;BME280;31345;51.522;10.702;2022-07-04T01:08:21;99286.47;;;15.72;98.00
45621;BME280;31345;51.522;10.702;2022-07-04T01:10:49;99284.94;;;15.69;99.62
45621;BME280;31345;51.522;10.702;2022-07-04T01:13:20;99291.44;;;15.65;99.17
45621;BME280;31345;51.522;10.702;2022-07-04T01:15:49;99293.75;;;15.37;100.00
45621;BME280;31345;51.522;10.702;2022-07-04T01:18:18;99291.59;;;14.98;100.00
45621;BME280;31345;51.522;10.702;2022-07-04T01:20:48;99288.47;;;14.92;100.00
45621;BME280;31345;51.522;10.702;2022-07-04T01:23:16;99286.34;;;14.98;100.00
45621;BME280;31345;51.522;10.702;2022-07-04T01:25:44;99298.00;;;15.16;100.00
45621;BME280;31345;51.522;10.702;2022-07-04T01:28:12;99291.13;;;15.58;99.57
45621;BME280;31345;51.522;10.702;2022-07-04T01:30:40;99297.75;;;15.52;100.00
45621;BME280;31345;51.522;10.702;2022-07-04T01:33:08;99307.13;;;15.45;100.00
45621;BME280;31345;51.522;10.702;2022-07-04T01:35:39;99306.56;;;15.09;100.00
45621;BME280;31345;51.522;10.702;2022-07-04T01:38:08;99312.59;;;14.76;100.00
45621;BME280;31345;51.522;10.702;2022-07-04T01:40:36;99307.66;;;14.83;100.00
45621;BME280;31345;51.522;10.702;2022-07-04T01:43:04;99314.22;;;14.89;100.00
45621;BME280;31345;51.522;10.702;2022-07-04T01:45:33;99311.56;;;15.12;100.00
45621;BME280;31345;51.522;10.702;2022-07-04T01:48:05;99315.63;;;15.16;100.00
45621;BME280;31345;51.522;10.702;2022-07-04T01:50:33;99313.03;;;15.04;100.00
45621;BME280;31345;51.522;10.702;2022-07-04T01:53:01;99310.94;;;15.20;100.00
45621;BME280;31345;51.522;10.702;2022-07-04T01:55:31;99325.22;;;15.06;100.00
45621;BME280;31345;51.522;10.702;2022-07-04T01:57:59;99320.19;;;15.02;100.00
45621;BME280;31345;51.522;10.702;2022-07-04T02:00:28;99315.09;;;15.22;100.00
45621;BME280;31345;51.522;10.702;2022-07-04T02:03:13;99321.00;;;15.68;97.45
45621;BME280;31345;51.522;10.702;2022-07-04T02:05:42;99323.41;;;15.39;100.00
45621;BME280;31345;51.522;10.702;2022-07-04T02:08:10;99328.00;;;14.81;100.00
45621;BME280;31345;51.522;10.702;2022-07-04T02:10:42;99328.41;;;14.53;100.00
45621;BME280;31345;51.522;10.702;2022-07-04T02:13:11;99323.94;;;15.33;100.00
45621;BME280;31345;51.522;10.702;2022-07-04T02:15:39;99330.00;;;15.12;100.00
45621;BME280;31345;51.522;10.702;2022-07-04T02:18:11;99320.03;;;14.60;100.00
45621;BME280;31345;51.522;10.702;2022-07-04T02:20:39;99333.09;;;14.50;100.00
45621;BME280;31345;51.522;10.702;2022-07-04T02:23:07;99338.69;;;14.45;100.00
45621;BME280;31345;51.522;10.702;2022-07-04T02:25:35;99334.34;;;14.67;100.00
45621;BME280;31345;51.522;10.702;2022-07-04T02:28:07;99337.38;;;14.74;100.00
45621;BME280;31345;51.522;10.702;2022-07-04T02:30:35;99327.56;;;14.42;100.00
45621;BME280;31345;51.522;10.702;2022-07-04T02:33:03;99345.03;;;14.43;100.00
45621;BME280;31345;51.522;10.702;2022-07-04T02:35:31;99340.47;;;14.56;100.00
45621;BME280;31345;51.522;10.702;2022-07-04T02:37:59;99341.56;;;14.42;100.00
45621;BME280;31345;51.522;10.702;2022-07-04T02:40:27;99339.53;;;14.46;100.00
45621;BME280;31345;51.522;10.702;2022-07-04T02:42:55;99339.34;;;14.93;100.00
45621;BME280;31345;51.522;10.702;2022-07-04T02:45:24;99336.88;;;14.69;100.00
45621;BME280;31345;51.522;10.702;2022-07-04T02:47:52;99339.94;;;14.85;100.00
45621;BME280;31345;51.522;10.702;2022-07-04T02:50:20;99345.19;;;15.08;97.87
45621;BME280;31345;51.522;10.702;2022-07-04T02:52:48;99330.84;;;14.89;99.10
45621;BME280;31345;51.522;10.702;2022-07-04T02:55:17;99337.00;;;14.21;100.00
45621;BME280;31345;51.522;10.702;2022-07-04T02:57:45;99341.31;;;14.68;100.00
45621;BME280;31345;51.522;10.702;2022-07-04T03:00:14;99348.38;;;14.68;100.00
45621;BME280;31345;51.522;10.702;2022-07-04T03:02:43;99347.28;;;14.59;100.00
45621;BME280;31345;51.522;10.702;2022-07-04T03:05:11;99350.75;;;14.36;100.00
45621;BME280;31345;51.522;10.702;2022-07-04T03:07:39;99354.69;;;14.31;100.00
45621;BME280;31345;51.522;10.702;2022-07-04T03:10:08;99357.56;;;14.39;100.00
45621;BME280;31345;51.522;10.702;2022-07-04T03:12:36;99367.28;;;14.50;100.00
45621;BME280;31345;51.522;10.702;2022-07-04T03:15:05;99366.78;;;14.56;100.00
45621;BME280;31345;51.522;10.702;2022-07-04T03:17:33;99360.66;;;14.67;100.00
45621;BME280;31345;51.522;10.702;2022-07-04T03:20:04;99364.59;;;14.84;100.00
45621;BME280;31345;51.522;10.702;2022-07-04T03:22:32;99366.91;;;14.77;100.00
45621;BME280;31345;51.522;10.702;2022-07-04T03:25:00;99367.75;;;14.66;100.00
45621;BME280;31345;51.522;10.702;2022-07-04T03:27:28;99362.72;;;14.75;100.00
45621;BME280;31345;51.522;10.702;2022-07-04T03:29:56;99361.75;;;14.99;98.43
45621;BME280;31345;51.522;10.702;2022-07-04T03:32:24;99375.13;;;15.19;97.34
45621;BME280;31345;51.522;10.702;2022-07-04T03:34:52;99366.91;;;15.00;98.22
45621;BME280;31345;51.522;10.702;2022-07-04T03:37:22;99376.22;;;15.04;97.43
45621;BME280;31345;51.522;10.702;2022-07-04T03:39:50;99377.78;;;14.61;100.00
45621;BME280;31345;51.522;10.702;2022-07-04T03:42:18;99378.75;;;14.72;100.00
45621;BME280;31345;51.522;10.702;2022-07-04T03:44:46;99372.38;;;14.97;98.89
45621;BME280;31345;51.522;10.702;2022-07-04T03:47:14;99382.22;;;14.72;100.00
45621;BME280;31345;51.522;10.702;2022-07-04T03:49:42;99375.38;;;15.04;98.02
45621;BME280;31345;51.522;10.702;2022-07-04T03:52:10;99374.06;;;14.87;100.00
45621;BME280;31345;51.522;10.702;2022-07-04T03:54:39;99381.72;;;15.01;99.18
45621;BME280;31345;51.522;10.702;2022-07-04T03:57:07;99378.50;;;14.86;99.23
45621;BME280;31345;51.522;10.702;2022-07-04T03:59:35;99384.34;;;14.78;100.00
45621;BME280;31345;51.522;10.702;2022-07-04T04:02:04;99379.19;;;14.88;99.51
45621;BME280;31345;51.522;10.702;2022-07-04T04:04:32;99382.22;;;14.84;100.00
45621;BME280;31345;51.522;10.702;2022-07-04T04:07:18;99393.44;;;14.74;100.00
45621;BME280;31345;51.522;10.702;2022-07-04T04:09:47;99386.88;;;14.80;100.00
45621;BME280;31345;51.522;10.702;2022-07-04T04:12:15;99392.88;;;14.71;100.00
45621;BME280;31345;51.522;10.702;2022-07-04T04:14:43;99388.06;;;14.76;100.00
45621;BME280;31345;51.522;10.702;2022-07-04T04:17:11;99390.31;;;15.03;99.88
45621;BME280;31345;51.522;10.702;2022-07-04T04:19:39;99397.28;;;14.93;100.00
45621;BME280;31345;51.522;10.702;2022-07-04T04:22:07;99398.81;;;14.84;100.00
45621;BME280;31345;51.522;10.702;2022-07-04T04:24:35;99408.53;;;14.84;100.00
45621;BME280;31345;51.522;10.702;2022-07-04T04:27:05;99404.94;;;14.96;100.00
45621;BME280;31345;51.522;10.702;2022-07-04T04:29:33;99409.72;;;15.14;100.00
45621;BME280;31345;51.522;10.702;2022-07-04T04:32:02;99403.22;;;14.95;100.00
45621;BME280;31345;51.522;10.702;2022-07-04T04:34:30;99415.94;;;15.13;100.00
45621;BME280;31345;51.522;10.702;2022-07-04T04:37:00;99410.25;;;15.29;100.00
45621;BME280;31345;51.522;10.702;2022-07-04T04:39:28;99432.09;;;15.20;100.00
45621;BME280;31345;51.522;10.702;2022-07-04T04:41:56;99425.25;;;15.28;100.00
45621;BME280;31345;51.522;10.702;2022-07-04T04:44:25;99433.59;;;15.45;100.00
45621;BME280;31345;51.522;10.702;2022-07-04T04:46:53;99427.47;;;15.45;100.00
45621;BME280;31345;51.522;10.702;2022-07-04T04:49:21;99424.84;;;15.45;100.00
45621;BME280;31345;51.522;10.702;2022-07-04T04:51:49;99419.75;;;15.64;99.88
45621;BME280;31345;51.522;10.702;2022-07-04T04:54:17;99424.25;;;15.74;100.00
45621;BME280;31345;51.522;10.702;2022-07-04T04:56:45;99426.16;;;15.83;99.28
45621;BME280;31345;51.522;10.702;2022-07-04T04:59:13;99427.75;;;15.95;97.60
45621;BME280;31345;51.522;10.702;2022-07-04T05:01:42;99429.69;;;16.15;96.02
45621;BME280;31345;51.522;10.702;2022-07-04T05:04:10;99433.78;;;16.07;96.28
45621;BME280;31345;51.522;10.702;2022-07-04T05:06:41;99435.28;;;16.00;96.98
45621;BME280;31345;51.522;10.702;2022-07-04T05:09:12;99439.41;;;15.93;97.43
45621;BME280;31345;51.522;10.702;2022-07-04T05:11:40;99441.34;;;16.12;96.18
45621;BME280;31345;51.522;10.702;2022-07-04T05:14:10;99439.41;;;15.93;98.82
45621;BME280;31345;51.522;10.702;2022-07-04T05:16:51;99444.44;;;15.96;99.16
45621;BME280;31345;51.522;10.702;2022-07-04T05:19:19;99448.34;;;16.02;97.86
45621;BME280;31345;51.522;10.702;2022-07-04T05:21:47;99443.44;;;16.30;94.21
45621;BME280;31345;51.522;10.702;2022-07-04T05:24:15;99442.13;;;16.24;97.95
45621;BME280;31345;51.522;10.702;2022-07-04T05:26:46;99446.66;;;16.33;94.60
45621;BME280;31345;51.522;10.702;2022-07-04T05:29:15;99454.44;;;16.35;96.09
45621;BME280;31345;51.522;10.702;2022-07-04T05:31:43;99449.59;;;16.40;96.27
45621;BME280;31345;51.522;10.702;2022-07-04T05:34:13;99457.19;;;16.33;97.75
45621;BME280;31345;51.522;10.702;2022-07-04T05:36:41;99460.09;;;16.30;98.78
45621;BME280;31345;51.522;10.702;2022-07-04T05:39:09;99463.91;;;16.26;99.32
45621;BME280;31345;51.522;10.702;2022-07-04T05:41:40;99467.09;;;16.41;97.92
45621;BME280;31345;51.522;10.702;2022-07-04T05:44:08;99467.63;;;16.56;96.02
45621;BME280;31345;51.522;10.702;2022-07-04T05:46:36;99465.03;;;16.66;94.76
45621;BME280;31345;51.522;10.702;2022-07-04T05:49:04;99473.47;;;16.60;96.98
45621;BME280;31345;51.522;10.702;2022-07-04T05:51:37;99468.03;;;16.83;94.19
45621;BME280;31345;51.522;10.702;2022-07-04T05:54:05;99469.44;;;16.87;95.38
45621;BME280;31345;51.522;10.702;2022-07-04T05:56:34;99459.88;;;16.96;96.84
45621;BME280;31345;51.522;10.702;2022-07-04T05:59:07;99470.97;;;16.90;94.66
45621;BME280;31345;51.522;10.702;2022-07-04T06:01:38;99469.00;;;16.92;95.90
45621;BME280;31345;51.522;10.702;2022-07-04T06:04:18;99468.06;;;16.93;94.01
45621;BME280;31345;51.522;10.702;2022-07-04T06:06:48;99471.28;;;17.06;94.09
45621;BME280;31345;51.522;10.702;2022-07-04T06:09:16;99467.63;;;16.97;93.97
45621;BME280;31345;51.522;10.702;2022-07-04T06:11:44;99470.53;;;17.35;92.05
45621;BME280;31345;51.522;10.702;2022-07-04T06:14:15;99478.41;;;17.16;92.98
45621;BME280;31345;51.522;10.702;2022-07-04T06:16:43;99476.38;;;17.29;90.88
45621;BME280;31345;51.522;10.702;2022-07-04T06:19:14;99480.69;;;17.30;90.35
45621;BME280;31345;51.522;10.702;2022-07-04T06:21:44;99477.34;;;17.28;91.44
45621;BME280;31345;51.522;10.702;2022-07-04T06:24:31;99478.44;;;17.26;92.05
45621;BME280;31345;51.522;10.702;2022-07-04T06:26:58;99479.28;;;17.26;90.47
45621;BME280;31345;51.522;10.702;2022-07-04T06:29:26;99477.66;;;17.35;91.15
45621;BME280;31345;51.522;10.702;2022-07-04T06:31:54;99488.44;;;17.22;94.77
45621;BME280;31345;51.522;10.702;2022-07-04T06:34:22;99479.31;;;17.36;93.58
45621;BME280;31345;51.522;10.702;2022-07-04T06:37:07;99476.50;;;17.79;90.28
45621;BME280;31345;51.522;10.702;2022-07-04T06:39:36;99479.25;;;18.36;86.88
45621;BME280;31345;51.522;10.702;2022-07-04T06:42:04;99470.25;;;18.77;80.60
45621;BME280;31345;51.522;10.702;2022-07-04T06:44:32;99472.88;;;19.15;79.06
45621;BME280;31345;51.522;10.702;2022-07-04T06:47:00;99471.06;;;19.34;79.95
45621;BME280;31345;51.522;10.702;2022-07-04T06:49:28;99460.66;;;19.50;78.27
45621;BME280;31345;51.522;10.702;2022-07-04T06:51:56;99467.81;;;19.86;76.90
45621;BME280;31345;51.522;10.702;2022-07-04T06:54:24;99465.22;;;19.94;77.12
45621;BME280;31345;51.522;10.702;2022-07-04T06:56:53;99464.50;;;20.29;76.10
45621;BME280;31345;51.522;10.702;2022-07-04T06:59:21;99467.81;;;20.31;75.86
45621;BME280;31345;51.522;10.702;2022-07-04T07:01:49;99460.81;;;20.48;75.25
45621;BME280;31345;51.522;10.702;2022-07-04T07:04:17;99463.47;;;20.75;72.93
45621;BME280;31345;51.522;10.702;2022-07-04T07:06:45;99457.19;;;20.84;70.66
45621;BME280;31345;51.522;10.702;2022-07-04T07:09:12;99457.66;;;20.26;71.48
45621;BME280;31345;51.522;10.702;2022-07-04T07:11:40;99454.94;;;20.18;69.52
45621;BME280;31345;51.522;10.702;2022-07-04T07:14:09;99449.34;;;19.48;69.95
45621;BME280;31345;51.522;10.702;2022-07-04T07:16:37;99454.41;;;19.23;70.33
45621;BME280;31345;51.522;10.702;2022-07-04T07:19:05;99450.28;;;19.57;69.43
45621;BME280;31345;51.522;10.702;2022-07-04T07:21:33;99445.13;;;19.55;69.71
45621;BME280;31345;51.522;10.702;2022-07-04T07:24:00;99439.09;;;19.63;67.06
45621;BME280;31345;51.522;10.702;2022-07-04T07:26:30;99444.19;;;19.47;68.04
45621;BME280;31345;51.522;10.702;2022-07-04T07:28:58;99447.03;;;19.81;69.51
45621;BME280;31345;51.522;10.702;2022-07-04T07:31:27;99441.91;;;20.25;71.13
45621;BME280;31345;51.522;10.702;2022-07-04T07:33:55;99438.94;;;20.54;67.43
45621;BME280;31345;51.522;10.702;2022-07-04T07:36:23;99445.22;;;20.80;67.11
45621;BME280;31345;51.522;10.702;2022-07-04T07:38:50;99432.94;;;20.79;64.48
45621;BME280;31345;51.522;10.702;2022-07-04T07:41:19;99444.13;;;20.91;66.81
45621;BME280;31345;51.522;10.702;2022-07-04T07:43:47;99441.59;;;20.81;66.24
45621;BME280;31345;51.522;10.702;2022-07-04T07:46:15;99434.50;;;20.98;66.04
45621;BME280;31345;51.522;10.702;2022-07-04T07:48:44;99433.28;;;20.84;63.29
45621;BME280;31345;51.522;10.702;2022-07-04T07:51:12;99441.28;;;20.92;64.27
45621;BME280;31345;51.522;10.702;2022-07-04T07:53:41;99441.16;;;21.02;63.99
45621;BME280;31345;51.522;10.702;2022-07-04T07:56:09;99441.78;;;21.47;65.28
45621;BME280;31345;51.522;10.702;2022-07-04T07:58:37;99437.19;;;21.58;64.85
45621;BME280;31345;51.522;10.702;2022-07-04T08:01:05;99438.94;;;21.41;65.17
45621;BME280;31345;51.522;10.702;2022-07-04T08:03:32;99437.19;;;21.50;64.00
45621;BME280;31345;51.522;10.702;2022-07-04T08:06:19;99441.63;;;21.41;65.70
45621;BME280;31345;51.522;10.702;2022-07-04T08:08:47;99439.53;;;21.09;62.29
45621;BME280;31345;51.522;10.702;2022-07-04T08:11:14;99442.56;;;21.15;57.87
45621;BME280;31345;51.522;10.702;2022-07-04T08:13:42;99440.22;;;21.12;62.12
45621;BME280;31345;51.522;10.702;2022-07-04T08:16:10;99450.06;;;21.36;62.70
45621;BME280;31345;51.522;10.702;2022-07-04T08:18:38;99436.72;;;21.79;62.81
45621;BME280;31345;51.522;10.702;2022-07-04T08:21:06;99431.03;;;21.57;60.95
45621;BME280;31345;51.522;10.702;2022-07-04T08:23:36;99433.75;;;21.22;63.74
45621;BME280;31345;51.522;10.702;2022-07-04T08:26:03;99433.00;;;20.95;64.23
45621;BME280;31345;51.522;10.702;2022-07-04T08:28:31;99444.97;;;21.43;68.48
45621;BME280;31345;51.522;10.702;2022-07-04T08:31:00;99439.00;;;21.49;64.43
45621;BME280;31345;51.522;10.702;2022-07-04T08:33:28;99443.16;;;21.68;64.93
45621;BME280;31345;51.522;10.702;2022-07-04T08:35:55;99442.56;;;21.15;65.13
45621;BME280;31345;51.522;10.702;2022-07-04T08:38:24;99434.91;;;20.68;66.00
45621;BME280;31345;51.522;10.702;2022-07-04T08:40:56;99435.81;;;21.45;63.55
45621;BME280;31345;51.522;10.702;2022-07-04T08:43:25;99433.69;;;21.57;64.06
45621;BME280;31345;51.522;10.702;2022-07-04T08:45:54;99423.41;;;21.96;61.85
45621;BME280;31345;51.522;10.702;2022-07-04T08:48:24;99432.94;;;21.30;62.31
45621;BME280;31345;51.522;10.702;2022-07-04T08:50:55;99437.75;;;20.49;63.96
45621;BME280;31345;51.522;10.702;2022-07-04T08:53:27;99441.03;;;20.16;65.28
45621;BME280;31345;51.522;10.702;2022-07-04T08:55:57;99432.75;;;20.72;62.61
45621;BME280;31345;51.522;10.702;2022-07-04T08:58:56;99433.25;;;21.11;62.25
45621;BME280;31345;51.522;10.702;2022-07-04T09:01:25;99431.28;;;21.29;61.66
45621;BME280;31345;51.522;10.702;2022-07-04T09:03:54;99427.56;;;21.65;60.71
45621;BME280;31345;51.522;10.702;2022-07-04T09:06:24;99425.53;;;21.92;59.67
45621;BME280;31345;51.522;10.702;2022-07-04T09:08:54;99419.03;;;22.45;61.36
45621;BME280;31345;51.522;10.702;2022-07-04T09:11:23;99418.72;;;22.80;61.62
45621;BME280;31345;51.522;10.702;2022-07-04T09:13:51;99408.59;;;22.75;58.73
45621;BME280;31345;51.522;10.702;2022-07-04T09:16:18;99417.59;;;22.74;60.78
45621;BME280;31345;51.522;10.702;2022-07-04T09:18:46;99425.56;;;22.09;60.00
45621;BME280;31345;51.522;10.702;2022-07-04T09:21:14;99422.06;;;21.67;60.61
45621;BME280;31345;51.522;10.702;2022-07-04T09:23:42;99417.72;;;21.57;59.54
45621;BME280;31345;51.522;10.702;2022-07-04T09:26:13;99421.41;;;21.90;58.85
45621;BME280;31345;51.522;10.702;2022-07-04T09:28:45;99425.00;;;21.47;59.45
45621;BME280;31345;51.522;10.702;2022-07-04T09:31:18;99425.19;;;21.45;57.72
45621;BME280;31345;51.522;10.702;2022-07-04T09:33:49;99426.53;;;21.99;60.89
45621;BME280;31345;51.522;10.702;2022-07-04T09:36:19;99417.53;;;22.42;56.37
45621;BME280;31345;51.522;10.702;2022-07-04T09:39:12;99411.19;;;22.43;53.72
45621;BME280;31345;51.522;10.702;2022-07-04T09:41:54;99415.59;;;23.08;56.38
45621;BME280;31345;51.522;10.702;2022-07-04T09:44:25;99406.97;;;23.06;55.43
45621;BME280;31345;51.522;10.702;2022-07-04T09:46:55;99399.84;;;23.30;55.38
45621;BME280;31345;51.522;10.702;2022-07-04T09:49:23;99399.56;;;23.48;59.69
45621;BME280;31345;51.522;10.702;2022-07-04T09:51:52;99403.41;;;23.13;54.49
45621;BME280;31345;51.522;10.702;2022-07-04T09:54:23;99397.03;;;22.51;54.79
45621;BME280;31345;51.522;10.702;2022-07-04T09:56:53;99398.81;;;22.59;54.43
45621;BME280;31345;51.522;10.702;2022-07-04T09:59:24;99403.44;;;22.73;55.99
45621;BME280;31345;51.522;10.702;2022-07-04T10:02:05;99410.38;;;22.26;57.23
45621;BME280;31345;51.522;10.702;2022-07-04T10:04:45;99396.75;;;22.21;53.77
45621;BME280;31345;51.522;10.702;2022-07-04T10:07:32;99396.66;;;22.54;54.30
45621;BME280;31345;51.522;10.702;2022-07-04T10:10:00;99403.81;;;23.02;53.11
45621;BME280;31345;51.522;10.702;2022-07-04T10:12:28;99387.50;;;22.97;53.41
45621;BME280;31345;51.522;10.702;2022-07-04T10:14:57;99387.50;;;22.97;53.22
45621;BME280;31345;51.522;10.702;2022-07-04T10:17:25;99388.13;;;23.39;56.14
45621;BME280;31345;51.522;10.702;2022-07-04T10:19:53;99393.50;;;23.31;56.36
45621;BME280;31345;51.522;10.702;2022-07-04T10:22:22;99398.03;;;23.22;56.07
45621;BME280;31345;51.522;10.702;2022-07-04T10:24:51;99383.34;;;22.94;53.73
45621;BME280;31345;51.522;10.702;2022-07-04T10:27:19;99395.22;;;23.23;55.32
45621;BME280;31345;51.522;10.702;2022-07-04T10:29:48;99392.53;;;23.23;55.07
45621;BME280;31345;51.522;10.702;2022-07-04T10:32:18;99384.19;;;23.50;53.93
45621;BME280;31345;51.522;10.702;2022-07-04T10:34:47;99366.28;;;23.59;47.59
45621;BME280;31345;51.522;10.702;2022-07-04T10:37:15;99371.34;;;23.53;50.35
45621;BME280;31345;51.522;10.702;2022-07-04T10:39:44;99360.53;;;23.85;47.72
45621;BME280;31345;51.522;10.702;2022-07-04T10:42:22;99366.38;;;24.04;49.76
45621;BME280;31345;51.522;10.702;2022-07-04T10:44:51;99369.97;;;23.58;52.78
45621;BME280;31345;51.522;10.702;2022-07-04T10:47:23;99374.06;;;23.45;52.08
45621;BME280;31345;51.522;10.702;2022-07-04T10:49:53;99370.28;;;23.39;49.92
45621;BME280;31345;51.522;10.702;2022-07-04T10:52:21;99368.03;;;24.05;58.07
45621;BME280;31345;51.522;10.702;2022-07-04T10:54:49;99370.56;;;24.37;51.98
45621;BME280;31345;51.522;10.702;2022-07-04T10:57:18;99372.75;;;24.03;53.61
45621;BME280;31345;51.522;10.702;2022-07-04T11:00:04;99375.00;;;23.91;53.86
45621;BME280;31345;51.522;10.702;2022-07-04T11:02:36;99367.84;;;23.91;53.06
45621;BME280;31345;51.522;10.702;2022-07-04T11:05:05;99362.47;;;24.15;50.31
45621;BME280;31345;51.522;10.702;2022-07-04T11:07:59;99370.28;;;23.78;50.35
45621;BME280;31345;51.522;10.702;2022-07-04T11:10:31;99368.19;;;23.88;50.29
45621;BME280;31345;51.522;10.702;2022-07-04T11:13:06;99366.88;;;24.23;48.54
45621;BME280;31345;51.522;10.702;2022-07-04T11:16:00;99363.66;;;24.42;51.12
45621;BME280;31345;51.522;10.702;2022-07-04T11:18:30;99369.09;;;24.19;49.97
45621;BME280;31345;51.522;10.702;2022-07-04T11:20:57;99374.88;;;24.08;52.20
45621;BME280;31345;51.522;10.702;2022-07-04T11:23:25;99372.63;;;23.96;49.88
45621;BME280;31345;51.522;10.702;2022-07-04T11:25:53;99366.31;;;24.27;48.25
45621;BME280;31345;51.522;10.702;2022-07-04T11:28:24;99365.31;;;24.59;47.58
45621;BME280;31345;51.522;10.702;2022-07-04T11:30:53;99370.66;;;24.59;49.62
45621;BME280;31345;51.522;10.702;2022-07-04T11:33:24;99366.84;;;24.98;49.22
45621;BME280;31345;51.522;10.702;2022-07-04T11:36:05;99358.81;;;24.98;47.93
45621;BME280;31345;51.522;10.702;2022-07-04T11:38:47;99350.09;;;24.59;46.91
45621;BME280;31345;51.522;10.702;2022-07-04T11:41:16;99350.56;;;24.63;49.54
45621;BME280;31345;51.522;10.702;2022-07-04T11:44:03;99356.88;;;24.92;46.13
45621;BME280;31345;51.522;10.702;2022-07-04T11:46:49;99362.81;;;25.09;51.09
45621;BME280;31345;51.522;10.702;2022-07-04T11:49:17;99353.22;;;24.63;49.59
45621;BME280;31345;51.522;10.702;2022-07-04T11:51:47;99348.38;;;24.36;50.68
45621;BME280;31345;51.522;10.702;2022-07-04T11:54:15;99353.78;;;24.73;51.69
45621;BME280;31345;51.522;10.702;2022-07-04T11:56:45;99348.94;;;24.83;50.25
45621;BME280;31345;51.522;10.702;2022-07-04T11:59:14;99339.19;;;24.76;47.08
45621;BME280;31345;51.522;10.702;2022-07-04T12:01:43;99338.59;;;24.43;45.99
45621;BME280;31345;51.522;10.702;2022-07-04T12:04:16;99352.38;;;24.92;51.22
45621;BME280;31345;51.522;10.702;2022-07-04T12:06:47;99352.28;;;24.86;47.04
45621;BME280;31345;51.522;10.702;2022-07-04T12:09:15;99353.09;;;24.86;47.47
45621;BME280;31345;51.522;10.702;2022-07-04T12:11:59;99346.66;;;24.95;47.51
45621;BME280;31345;51.522;10.702;2022-07-04T12:14:27;99348.09;;;24.98;46.79
45621;BME280;31345;51.522;10.702;2022-07-04T12:17:16;99346.84;;;24.94;44.28
45621;BME280;31345;51.522;10.702;2022-07-04T12:19:55;99345.72;;;23.83;47.60
45621;BME280;31345;51.522;10.702;2022-07-04T12:22:43;99349.59;;;23.80;46.47
45621;BME280;31345;51.522;10.702;2022-07-04T12:25:22;99347.88;;;23.64;50.52
45621;BME280;31345;51.522;10.702;2022-07-04T12:27:55;99338.38;;;24.00;49.02
45621;BME280;31345;51.522;10.702;2022-07-04T12:30:25;99345.84;;;24.50;49.30
45621;BME280;31345;51.522;10.702;2022-07-04T12:32:56;99338.94;;;24.55;46.98
45621;BME280;31345;51.522;10.702;2022-07-04T12:35:40;99348.94;;;24.83;48.62
45621;BME280;31345;51.522;10.702;2022-07-04T12:38:12;99346.22;;;25.14;46.52
45621;BME280;31345;51.522;10.702;2022-07-04T12:40:57;99353.09;;;24.86;47.07
45621;BME280;31345;51.522;10.702;2022-07-04T12:43:43;99344.47;;;24.69;45.69
45621;BME280;31345;51.522;10.702;2022-07-04T12:46:13;99337.34;;;24.76;42.98
45621;BME280;31345;51.522;10.702;2022-07-04T12:48:42;99333.34;;;25.24;44.81
45621;BME280;31345;51.522;10.702;2022-07-04T12:51:14;99333.59;;;25.07;38.42
45621;BME280;31345;51.522;10.702;2022-07-04T12:56:50;99325.19;;;25.11;42.21
45621;BME280;31345;51.522;10.702;2022-07-04T12:59:39;99330.72;;;24.87;45.61
45621;BME280;31345;51.522;10.702;2022-07-04T13:02:09;99318.50;;;25.00;44.24
45621;BME280;31345;51.522;10.702;2022-07-04T13:04:58;99328.00;;;25.02;45.59
45621;BME280;31345;51.522;10.702;2022-07-04T13:08:20;99320.16;;;25.44;41.92